Nearby METAR Reports

 

KDPA - Chicago/Dupage, Illinois, USA
Distance from station: NW 11mi, 18km
Updated: Tue, 22-Jun-2021 6:52am CDT
Clear
Clear
 Wind from calm
Wind: Calm
Temperature: 55°F , 13°C
Dew Point: 48°F , 9°C
Humidity: 77%
Barometer: 29.98 inHg , 1015.2 hPa
Clouds: Clear
Visibility: 10 miles , 16 km
2021/06/22 11:52 KDPA 221152Z 00000KT 10SM CLR 13/09 A2998 RMK AO2 SLP151 T01280089 10128 20089 53013
KLOT - Romeoville/Chi, Illinois, USA
Distance from station: S 13mi, 21km
Updated: Tue, 22-Jun-2021 7:35am CDT
Clear
Clear
 Wind from W
Wind: W 5 mph , 7 km/h
Temperature: 59°F , 15°C
Dew Point: 48°F , 9°C
Humidity: 68%
Barometer: 30.01 inHg , 1016.3 hPa
Clouds: Clear
Visibility: 10 miles , 16 km
2021/06/22 12:35 KLOT 221235Z AUTO 26004KT 10SM CLR 15/09 A3001 RMK AO2 T01460089
 
KORD - Chicago O'Hare, Illinois, USA
Distance from station: NE 17mi, 27km
Updated: Tue, 22-Jun-2021 6:51am CDT
Few Clouds
Few Clouds
 Wind from WSW
Wind: WSW 6 mph , 9 km/h
Temperature: 57°F , 14°C
Dew Point: 46°F , 8°C
Humidity: 67%
Barometer: 29.97 inHg , 1014.9 hPa
Clouds: Few Clouds
Visibility: 10 miles , 16 km
Cloud details: Few Clouds 7000 ft
2021/06/22 11:51 KORD 221151Z 24005KT 10SM FEW070 14/08 A2997 RMK AO2 SLP148 T01390083 10139 20122 53014
KARR - Chicago/Aurora, Illinois, USA
Distance from station: W 19mi, 30km
Updated: Tue, 22-Jun-2021 6:52am CDT
Clear
Clear
 Wind from calm
Wind: Calm
Temperature: 54°F , 12°C
Dew Point: 46°F , 8°C
Humidity: 77%
Barometer: 29.99 inHg , 1015.6 hPa
Clouds: Clear
Visibility: 10 miles , 16 km
2021/06/22 11:52 KARR 221152Z AUTO 00000KT 10SM CLR 12/08 A2999 RMK AO2 SLP155 T01170083 10117 20061 53014
 
KJOT - Joliet, Illinois, USA
Distance from station: S 19mi, 31km
Updated: Tue, 22-Jun-2021 7:35am CDT
Clear
Clear
 Wind from calm
Wind: Calm
Temperature: 59°F , 15°C
Dew Point: 48°F , 9°C
Humidity: 68%
Barometer: 30.02 inHg , 1016.6 hPa
Clouds: Clear
Visibility: 10 miles , 16 km
2021/06/22 12:35 KJOT 221235Z AUTO 00000KT 10SM CLR 15/09 A3002 RMK AO2 T01540092
KMDW - Chicago, Illinois, USA
Distance from station: E 19mi, 31km
Updated: Tue, 22-Jun-2021 7:52am CDT
unable to load KMDW data RC=
unable to load KMDW data RC=
 
 
KPWK - Palwaukee, Illinois, USA
Distance from station: NNE 25mi, 41km
Updated: Tue, 22-Jun-2021 6:52am CDT
Clear
Clear
 Wind from SW
Wind: SW 5 mph , 7 km/h
Temperature: 57°F , 14°C
Dew Point: 46°F , 8°C
Humidity: 67%
Barometer: 29.99 inHg , 1015.6 hPa
Clouds: Clear
Visibility: 10 miles , 16 km
2021/06/22 11:52 KPWK 221152Z 22004KT 10SM CLR 14/08 A2999 RMK AO2 SLP153 T01390083 10139 20106 51014
KC09 - Morris-Washburn, Illinois, USA
Distance from station: SSW 29mi, 47km
Updated: Tue, 22-Jun-2021 7:35am CDT
Clear
Clear
 Wind from W
Wind: W 5 mph , 7 km/h
Temperature: 55°F , 13°C
Dew Point: 50°F , 10°C
Humidity: 82%
Barometer: 30.01 inHg , 1016.3 hPa
Clouds: Clear
Visibility: 10 miles , 16 km
2021/06/22 12:35 KC09 221235Z AUTO 26004KT 10SM CLR 13/10 A3001 RMK AO2 T01290104
 
KDKB - De Kalb, Illinois, USA
Distance from station: WNW 31mi, 50km
Updated: Tue, 22-Jun-2021 7:53am CDT
unable to load KDKB data RC=
unable to load KDKB data RC=
 
KIGQ - Chicago/Lansing, Illinois, USA
Distance from station: ESE 35mi, 57km
Updated: Tue, 22-Jun-2021 7:35am CDT
Clear
Clear
 Wind from WNW
Wind: WNW 6 mph , 9 km/h
Temperature: 59°F , 15°C
Dew Point: 52°F , 11°C
Humidity: 77%
Barometer: 30.01 inHg , 1016.3 hPa
Clouds: Clear
Visibility: 10 miles , 16 km
2021/06/22 12:35 KIGQ 221235Z AUTO 30005KT 10SM CLR 15/11 A3001 RMK AO2 T01490113
 
KGYY - Gary Regional, Indiana, USA
Distance from station: ESE 38mi, 62km
Updated: Tue, 22-Jun-2021 7:45am CDT
Few Clouds
Few Clouds
 Wind from WSW
Wind: WSW 14 mph , 22 km/h
Temperature: 61°F , 16°C
Dew Point: 52°F , 11°C
Humidity: 72%
Barometer: 30.02 inHg , 1016.6 hPa
Clouds: Few Clouds
Visibility: 10 miles , 16 km
Cloud details: Few Clouds 3000 ft
2021/06/22 12:45 KGYY 221245Z 24012KT 10SM FEW030 16/11 A3002
KUGN - Waukegan, Illinois, USA
Distance from station: NNE 45mi, 73km
Updated: Tue, 22-Jun-2021 7:53am CDT
unable to load KUGN data RC=
unable to load KUGN data RC=
 
 
KRPJ - Rochelle/Koritz, Illinois, USA
Distance from station: W 50mi, 80km
Updated: Tue, 22-Jun-2021 7:35am CDT
Clear
Clear
 Wind from calm
Wind: Calm
Temperature: 54°F , 12°C
Dew Point: 52°F , 11°C
Humidity: 94%
Barometer: 30.01 inHg , 1016.3 hPa
Clouds: Clear
Visibility: 10 miles , 16 km
2021/06/22 12:35 KRPJ 221235Z AUTO 00000KT 10SM CLR 12/11 A3001 RMK AO2 T01220110 TSNO